Sealand New York — 9HA3394 — position and weather

sailwx.info

Track history (hours):
 
Tides and Currents Weather Stations Pressure Air Temp Water Temp Dewpoint Dewpoint Depression Visibility Wind Speed Wind Dir Waves Ship Positions

Sealand New York

Last reported at 2018-Aug-18 04:04 UTC. Time now 2018-Aug-21 03:53 UTC.
Position N 26°14' W 079°12'.

Length 304 m; draft 11.3 m.

Type: Ship (hazmat cat D). MMSI: 229544000.

Date/timePositionNaut miles runAvg speedWind from/ knotsBaromVisibWave heightAir tempDewpointWater temp
2018-Aug-18 04:04N 26°14' W 079°12'212.1
2018-Aug-18 03:53N 26°13' W 079°14'512.6
2018-Aug-18 03:30N 26°11' W 079°19'613.2
2018-Aug-18 03:01N 26°07' W 079°25'713.3
2018-Aug-18 02:30N 26°03' W 079°31'713.5
2018-Aug-18 02:00N 25°60' W 079°38'713.7
2018-Aug-18 01:30N 25°56' W 079°44'713.7
2018-Aug-18 01:00N 25°53' W 079°51'713.5
2018-Aug-18 00:30N 25°50' W 079°57'612.4
2018-Aug-18 00:01N 25°47' W 080°03'5 9.4
2018-Aug-17 23:30N 25°46' W 080°08'1 3.0
2018-Aug-17 23:00N 25°46' W 080°10'1 2.0
2018-Aug-17 22:30N 25°46' W 080°09'0 0.1
2018-Aug-17 21:59N 25°46' W 080°09'0 0.0
2018-Aug-17 21:29N 25°46' W 080°09'0 0.0
2018-Aug-17 20:59N 25°46' W 080°09'0 0.0
2018-Aug-17 20:29N 25°46' W 080°09'0 0.0
2018-Aug-17 19:56N 25°46' W 080°09'0 0.0
2018-Aug-17 19:29N 25°46' W 080°09'0 0.0
2018-Aug-17 18:59N 25°46' W 080°09'0 0.0
2018-Aug-17 18:29N 25°46' W 080°09'0 0.0
2018-Aug-17 17:59N 25°46' W 080°09'0 0.0
2018-Aug-17 17:29N 25°46' W 080°09'0 0.0
2018-Aug-17 16:59N 25°46' W 080°09'0 0.0
2018-Aug-17 16:29N 25°46' W 080°09'0 0.0
2018-Aug-17 15:59N 25°46' W 080°09'0 0.0
2018-Aug-17 15:29N 25°46' W 080°09'0 0.0
2018-Aug-17 14:59N 25°46' W 080°09'0 0.0
2018-Aug-17 13:59N 25°46' W 080°09'0 0.0
2018-Aug-17 13:29N 25°46' W 080°09'0 0.0
2018-Aug-17 12:53N 25°46' W 080°09'0 0.0
2018-Aug-17 12:26N 25°46' W 080°09'0 0.0
2018-Aug-17 11:59N 25°46' W 080°09'0 0.0
2018-Aug-17 11:29N 25°46' W 080°09'0 0.0
2018-Aug-17 10:59N 25°46' W 080°09'0 0.0
2018-Aug-17 10:30N 25°46' W 080°09'0 0.6
2018-Aug-17 10:01N 25°46' W 080°09'4 8.8
2018-Aug-17 09:30N 25°46' W 080°04'2 3.9
2018-Aug-17 09:00N 25°46' W 080°02'612.5
2018-Aug-17 08:30N 25°41' W 079°59'714.7
2018-Aug-17 08:00N 25°33' W 079°59'815.8
2018-Aug-17 07:30N 25°25' W 079°59'816.6
2018-Aug-17 07:00N 25°18' W 080°02'611.2
2018-Aug-17 06:30N 25°12' W 080°05'1718.2
2018-Aug-17 05:36N 24°58' W 080°15'218.1
2018-Aug-17 05:30N 24°57' W 080°16'917.9
2018-Aug-17 05:00N 24°51' W 080°22'918.1
2018-Aug-17 04:30N 24°44' W 080°30'918.3
2018-Aug-17 04:00N 24°38' W 080°38'57613.7
2018-Aug-15 10:04N 29°36' W 089°52'111.2
2018-Aug-15 09:56N 29°37' W 089°53'910.6
2018-Aug-15 09:06N 29°44' W 089°60'111.3
2018-Aug-15 09:00N 29°44' W 090°00'510.0
2018-Aug-15 08:30N 29°49' W 089°60'4 8.4
2018-Aug-15 08:01N 29°52' W 089°57'3 5.5
2018-Aug-15 07:29N 29°55' W 089°56'612.9
2018-Aug-15 07:01N 29°58' W 090°03'4 8.4
2018-Aug-15 06:29N 29°55' W 090°07'0 0.3
2018-Aug-15 05:56N 29°55' W 090°07'0 0.0
2018-Aug-15 05:26N 29°55' W 090°07'0 0.0
2018-Aug-15 04:56N 29°55' W 090°07'0 0.0
2018-Aug-15 04:29N 29°55' W 090°07'0 0.0
2018-Aug-15 03:59N 29°55' W 090°07'0 0.0
2018-Aug-15 03:29N 29°55' W 090°07'0 0.0
2018-Aug-15 02:59N 29°55' W 090°07'0 0.0
2018-Aug-15 02:29N 29°55' W 090°07'0 0.0
2018-Aug-15 01:59N 29°55' W 090°07'0 0.0
2018-Aug-15 01:29N 29°55' W 090°07'0 0.0
2018-Aug-15 00:59N 29°55' W 090°07'0 0.0
2018-Aug-15 00:29N 29°55' W 090°07'0 0.0
2018-Aug-14 23:59N 29°55' W 090°07'0 0.0
2018-Aug-14 23:29N 29°55' W 090°07'0 0.0
2018-Aug-14 22:59N 29°55' W 090°07'0 0.0
2018-Aug-14 22:29N 29°55' W 090°07'0 0.0
2018-Aug-14 21:56N 29°55' W 090°07'0 0.0
2018-Aug-14 21:29N 29°55' W 090°07'0 0.0
2018-Aug-14 20:59N 29°55' W 090°07'0 0.0
2018-Aug-14 20:29N 29°55' W 090°07'0 0.0
2018-Aug-14 19:59N 29°55' W 090°07'0 0.0
2018-Aug-14 19:29N 29°55' W 090°07'0 0.0
2018-Aug-14 18:59N 29°55' W 090°07'0 0.0
2018-Aug-14 18:26N 29°55' W 090°07'0 0.0
2018-Aug-14 17:59N 29°55' W 090°07'0 0.0
2018-Aug-14 17:26N 29°55' W 090°07'0 0.0
2018-Aug-14 16:59N 29°55' W 090°07'0 0.0
2018-Aug-14 16:29N 29°55' W 090°07'0 0.0
2018-Aug-14 15:59N 29°55' W 090°07'0 0.0
2018-Aug-14 15:29N 29°55' W 090°07'0 0.0
2018-Aug-14 14:59N 29°55' W 090°07'0 0.0
2018-Aug-14 14:29N 29°55' W 090°07'0 0.0
2018-Aug-14 13:59N 29°55' W 090°07'0 0.0
2018-Aug-14 13:29N 29°55' W 090°07'0 0.0
2018-Aug-14 12:59N 29°55' W 090°07'0 0.0
2018-Aug-14 12:26N 29°55' W 090°07'0 0.0
2018-Aug-14 11:59N 29°55' W 090°07'0 0.0
2018-Aug-14 11:29N 29°55' W 090°07'0 0.0
2018-Aug-14 10:59N 29°55' W 090°07'0 0.0
2018-Aug-14 10:30N 29°55' W 090°07'2 3.9
2018-Aug-14 10:00N 29°55' W 090°04'3 7.0
2018-Aug-14 09:30N 29°57' W 090°01'510.5
2018-Aug-14 09:00N 29°55' W 089°55'3 5.6
2018-Aug-14 08:30N 29°52' W 089°57'4 8.1
2018-Aug-14 08:00N 29°50' W 089°60'5 9.7
2018-Aug-14 07:30N 29°45' W 090°01'611.0
2018-Aug-14 07:00N 29°40' W 089°57'4 7.7
2018-Aug-14 06:25N 29°37' W 089°54'811.1
2018-Aug-14 05:43N 29°33' W 089°46'614.4
2018-Aug-14 05:19N 29°29' W 089°41'196 9.4
2018-Aug-13 08:29N 28°25' W 093°13'814.8
2018-Aug-13 07:57N 28°30' W 093°20'714.6
2018-Aug-13 07:27N 28°34' W 093°27'614.6
2018-Aug-13 07:00N 28°38' W 093°33'714.8
2018-Aug-13 06:30N 28°43' W 093°40'815.0
2018-Aug-13 06:00N 28°47' W 093°47'714.7
2018-Aug-13 05:29N 28°50' W 093°55'814.7
2018-Aug-13 04:56N 28°52' W 094°04'614.3
2018-Aug-13 04:29N 28°53' W 094°11'1014.3
2018-Aug-13 03:49N 28°55' W 094°22'611.7
2018-Aug-13 03:20N 29°00' W 094°25'1413.7
2018-Aug-13 02:18N 29°13' W 094°32'414.9
2018-Aug-13 02:00N 29°16' W 094°35'612.0
2018-Aug-13 01:30N 29°20' W 094°41'612.7
2018-Aug-13 01:00N 29°22' W 094°48'713.3
2018-Aug-13 00:30N 29°28' W 094°51'612.7
2018-Aug-13 00:00N 29°33' W 094°55'510.8
2018-Aug-12 23:30N 29°37' W 094°59'1 2.2
2018-Aug-12 22:58N 29°37' W 095°00'0 0.0
2018-Aug-12 22:28N 29°37' W 095°00'0 0.0
2018-Aug-12 21:58N 29°37' W 095°00'0 0.0
2018-Aug-12 21:28N 29°37' W 095°00'0 0.0
2018-Aug-12 20:58N 29°37' W 095°00'0 0.0
2018-Aug-12 20:28N 29°37' W 095°00'0 0.0
2018-Aug-12 19:58N 29°37' W 095°00'0 0.0
2018-Aug-12 19:28N 29°37' W 095°00'0 0.0
2018-Aug-12 18:58N 29°37' W 095°00'0 0.0
2018-Aug-12 18:28N 29°37' W 095°00'0 0.0
2018-Aug-12 17:58N 29°37' W 095°00'0 0.0
2018-Aug-12 17:28N 29°37' W 095°00'0 0.0
2018-Aug-12 16:58N 29°37' W 095°00'0 0.0
2018-Aug-12 16:28N 29°37' W 095°00'0 0.0
2018-Aug-12 15:58N 29°37' W 095°00'0 0.0
2018-Aug-12 15:28N 29°37' W 095°00'0 0.0
2018-Aug-12 14:58N 29°37' W 095°00'0 0.0
2018-Aug-12 14:28N 29°37' W 095°00'0 0.0
2018-Aug-12 13:58N 29°37' W 095°00'0 0.0
2018-Aug-12 13:28N 29°37' W 095°00'0 0.0
2018-Aug-12 12:58N 29°37' W 095°00'0 0.0
2018-Aug-12 12:28N 29°37' W 095°00'0 0.0
2018-Aug-12 11:58N 29°37' W 095°00'0 0.0
2018-Aug-12 11:28N 29°37' W 095°00'0 0.0
2018-Aug-12 10:58N 29°37' W 095°00'0 0.0
2018-Aug-12 10:28N 29°37' W 095°00'0 0.0
2018-Aug-12 09:58N 29°37' W 095°00'0 0.0
2018-Aug-12 09:28N 29°37' W 095°00'0 0.0
2018-Aug-12 08:58N 29°37' W 095°00'0 0.0
2018-Aug-12 08:28N 29°37' W 095°00'0 0.0
2018-Aug-12 07:58N 29°37' W 095°00'0 0.0
2018-Aug-12 07:28N 29°37' W 095°00'0 0.0
2018-Aug-12 06:58N 29°37' W 095°00'0 0.0
2018-Aug-12 06:28N 29°37' W 095°00'0 0.0
2018-Aug-12 05:58N 29°37' W 095°00'0 0.0
2018-Aug-12 05:28N 29°37' W 095°00'0 0.0
2018-Aug-12 04:58N 29°37' W 095°00'0 0.0
2018-Aug-12 04:28N 29°37' W 095°00'0 0.0
2018-Aug-12 03:58N 29°37' W 095°00'0 0.0
2018-Aug-12 03:28N 29°37' W 095°00'0 0.0
2018-Aug-12 02:58N 29°37' W 095°00'0 0.0
2018-Aug-12 02:28N 29°37' W 095°00'0 0.0
2018-Aug-12 01:58N 29°37' W 095°00'0 0.0
2018-Aug-12 01:28N 29°37' W 095°00'0 0.0
2018-Aug-12 00:58N 29°37' W 095°00'0 0.0
2018-Aug-12 00:28N 29°37' W 095°00'0 0.0
2018-Aug-11 23:58N 29°37' W 095°00'0 0.0
2018-Aug-11 23:28N 29°37' W 095°00'0 0.0
2018-Aug-11 22:58N 29°37' W 095°00'0 0.0
2018-Aug-11 22:28N 29°37' W 095°00'0 0.0
2018-Aug-11 21:58N 29°37' W 095°00'0 0.0
2018-Aug-11 21:28N 29°37' W 095°00'0 0.0
2018-Aug-11 20:58N 29°37' W 095°00'0 0.0
2018-Aug-11 20:28N 29°37' W 095°00'0 0.1
2018-Aug-11 20:00N 29°37' W 095°00'0 0.1
2018-Aug-11 19:30N 29°37' W 095°00'3 5.7
2018-Aug-11 19:00N 29°37' W 094°57'510.0
2018-Aug-11 18:30N 29°32' W 094°54'612.2
2018-Aug-11 18:00N 29°27' W 094°51'612.4
2018-Aug-11 17:31N 29°21' W 094°48'510.9
2018-Aug-11 17:00N 29°20' W 094°41'611.6
2018-Aug-11 16:30N 29°17' W 094°36'5 9.3
2018-Aug-11 16:00N 29°15' W 094°31'3 5.7
2018-Aug-11 15:30N 29°13' W 094°29'4 7.7
2018-Aug-11 15:00N 29°10' W 094°25'510.6
2018-Aug-11 14:29N 29°05' W 094°25'  
2018-Aug-09 05:23N 20°00' W 096°16'1516.0
2018-Aug-09 04:28N 19°47' W 096°10'916.0
2018-Aug-09 03:56N 19°39' W 096°06'716.7
2018-Aug-09 03:30N 19°32' W 096°03'816.9
2018-Aug-09 03:00N 19°24' W 095°60'816.4
2018-Aug-09 02:30N 19°17' W 095°57'714.3
2018-Aug-09 02:00N 19°12' W 096°03'4 8.2
2018-Aug-09 01:30N 19°12' W 096°07'1 2.1
2018-Aug-09 01:00N 19°13' W 096°08'0 0.0
2018-Aug-09 00:27N 19°13' W 096°08'0 0.0
2018-Aug-09 00:00N 19°13' W 096°08'0 0.0
2018-Aug-08 23:30N 19°13' W 096°08'0 0.0
2018-Aug-08 23:00N 19°13' W 096°08'0 0.0
2018-Aug-08 22:30N 19°13' W 096°08'0 0.0
2018-Aug-08 22:00N 19°13' W 096°08'0 0.0
2018-Aug-08 21:30N 19°13' W 096°08'0 0.0
2018-Aug-08 21:00N 19°13' W 096°08'0 0.0
2018-Aug-08 20:30N 19°13' W 096°08'0 0.0
2018-Aug-08 19:57N 19°13' W 096°08'0 0.0
2018-Aug-08 19:27N 19°13' W 096°08'0 0.0
2018-Aug-08 18:57N 19°13' W 096°08'0 0.0
2018-Aug-08 18:30N 19°13' W 096°08'0 0.0
2018-Aug-08 18:00N 19°13' W 096°08'0 0.0
2018-Aug-08 17:30N 19°13' W 096°08'0 0.0
2018-Aug-08 17:00N 19°13' W 096°08'0 0.0
2018-Aug-08 16:30N 19°13' W 096°08'0 0.0
2018-Aug-08 16:00N 19°13' W 096°08'0 0.0
2018-Aug-08 15:30N 19°13' W 096°08'0 0.0
2018-Aug-08 14:57N 19°13' W 096°08'0 0.0
2018-Aug-08 14:30N 19°13' W 096°08'0 0.0
2018-Aug-08 14:00N 19°13' W 096°08'0 0.0
2018-Aug-08 13:30N 19°13' W 096°08'0 0.0
2018-Aug-08 13:00N 19°13' W 096°08'0 0.0
2018-Aug-08 12:24N 19°13' W 096°08'0 0.0
2018-Aug-08 11:48N 19°13' W 096°08'0 0.0
2018-Aug-08 11:30N 19°13' W 096°08'0 0.0
2018-Aug-08 11:00N 19°13' W 096°08'0 0.0
2018-Aug-08 10:30N 19°13' W 096°08'0 0.0
2018-Aug-08 10:00N 19°13' W 096°08'0 0.0
2018-Aug-08 09:30N 19°13' W 096°08'0 0.0
2018-Aug-08 09:00N 19°13' W 096°08'0 0.0
2018-Aug-08 08:24N 19°13' W 096°08'0 0.0
2018-Aug-08 08:00N 19°13' W 096°08'0 0.0
2018-Aug-08 07:24N 19°13' W 096°08'0 0.0
2018-Aug-08 07:00N 19°13' W 096°08'0 0.0
2018-Aug-08 06:30N 19°13' W 096°08'0 0.0
2018-Aug-08 05:54N 19°13' W 096°08'0 0.0
2018-Aug-08 05:30N 19°13' W 096°08'1 1.4
2018-Aug-08 05:00N 19°12' W 096°08'  
Track history (hours):
 
Tides and Currents Weather Stations Pressure Air Temp Water Temp Dewpoint Dewpoint Depression Visibility Wind Speed Wind Dir Waves Ship Positions

Sealand New York

Last reported at 2018-Aug-18 04:04 UTC. Time now 2018-Aug-21 03:53 UTC.
Position N 26°14' W 079°12'.

Length 304 m; draft 11.3 m.

Type: Ship (hazmat cat D). MMSI: 229544000.

Date/timePositionNaut miles runAvg speedWind from/ knotsBaromVisibWave heightAir tempDewpointWater temp
2018-Aug-18 04:04N 26°14' W 079°12'212.1
2018-Aug-18 03:53N 26°13' W 079°14'512.6
2018-Aug-18 03:30N 26°11' W 079°19'613.2
2018-Aug-18 03:01N 26°07' W 079°25'713.3
2018-Aug-18 02:30N 26°03' W 079°31'713.5
2018-Aug-18 02:00N 25°60' W 079°38'713.7
2018-Aug-18 01:30N 25°56' W 079°44'713.7
2018-Aug-18 01:00N 25°53' W 079°51'713.5
2018-Aug-18 00:30N 25°50' W 079°57'612.4
2018-Aug-18 00:01N 25°47' W 080°03'5 9.4
2018-Aug-17 23:30N 25°46' W 080°08'1 3.0
2018-Aug-17 23:00N 25°46' W 080°10'1 2.0
2018-Aug-17 22:30N 25°46' W 080°09'0 0.1
2018-Aug-17 21:59N 25°46' W 080°09'0 0.0
2018-Aug-17 21:29N 25°46' W 080°09'0 0.0
2018-Aug-17 20:59N 25°46' W 080°09'0 0.0
2018-Aug-17 20:29N 25°46' W 080°09'0 0.0
2018-Aug-17 19:56N 25°46' W 080°09'0 0.0
2018-Aug-17 19:29N 25°46' W 080°09'0 0.0
2018-Aug-17 18:59N 25°46' W 080°09'0 0.0
2018-Aug-17 18:29N 25°46' W 080°09'0 0.0
2018-Aug-17 17:59N 25°46' W 080°09'0 0.0
2018-Aug-17 17:29N 25°46' W 080°09'0 0.0
2018-Aug-17 16:59N 25°46' W 080°09'0 0.0
2018-Aug-17 16:29N 25°46' W 080°09'0 0.0
2018-Aug-17 15:59N 25°46' W 080°09'0 0.0
2018-Aug-17 15:29N 25°46' W 080°09'0 0.0
2018-Aug-17 14:59N 25°46' W 080°09'0 0.0
2018-Aug-17 13:59N 25°46' W 080°09'0 0.0
2018-Aug-17 13:29N 25°46' W 080°09'0 0.0
2018-Aug-17 12:53N 25°46' W 080°09'0 0.0
2018-Aug-17 12:26N 25°46' W 080°09'0 0.0
2018-Aug-17 11:59N 25°46' W 080°09'0 0.0
2018-Aug-17 11:29N 25°46' W 080°09'0 0.0
2018-Aug-17 10:59N 25°46' W 080°09'0 0.0
2018-Aug-17 10:30N 25°46' W 080°09'0 0.6
2018-Aug-17 10:01N 25°46' W 080°09'4 8.8
2018-Aug-17 09:30N 25°46' W 080°04'2 3.9
2018-Aug-17 09:00N 25°46' W 080°02'612.5
2018-Aug-17 08:30N 25°41' W 079°59'714.7
2018-Aug-17 08:00N 25°33' W 079°59'815.8
2018-Aug-17 07:30N 25°25' W 079°59'816.6
2018-Aug-17 07:00N 25°18' W 080°02'611.2
2018-Aug-17 06:30N 25°12' W 080°05'1718.2
2018-Aug-17 05:36N 24°58' W 080°15'218.1
2018-Aug-17 05:30N 24°57' W 080°16'917.9
2018-Aug-17 05:00N 24°51' W 080°22'918.1
2018-Aug-17 04:30N 24°44' W 080°30'918.3
2018-Aug-17 04:00N 24°38' W 080°38'57613.7
2018-Aug-15 10:04N 29°36' W 089°52'111.2
2018-Aug-15 09:56N 29°37' W 089°53'910.6
2018-Aug-15 09:06N 29°44' W 089°60'111.3
2018-Aug-15 09:00N 29°44' W 090°00'510.0
2018-Aug-15 08:30N 29°49' W 089°60'4 8.4
2018-Aug-15 08:01N 29°52' W 089°57'3 5.5
2018-Aug-15 07:29N 29°55' W 089°56'612.9
2018-Aug-15 07:01N 29°58' W 090°03'4 8.4
2018-Aug-15 06:29N 29°55' W 090°07'0 0.3
2018-Aug-15 05:56N 29°55' W 090°07'0 0.0
2018-Aug-15 05:26N 29°55' W 090°07'0 0.0
2018-Aug-15 04:56N 29°55' W 090°07'0 0.0
2018-Aug-15 04:29N 29°55' W 090°07'0 0.0
2018-Aug-15 03:59N 29°55' W 090°07'0 0.0
2018-Aug-15 03:29N 29°55' W 090°07'0 0.0
2018-Aug-15 02:59N 29°55' W 090°07'0 0.0
2018-Aug-15 02:29N 29°55' W 090°07'0 0.0
2018-Aug-15 01:59N 29°55' W 090°07'0 0.0
2018-Aug-15 01:29N 29°55' W 090°07'0 0.0
2018-Aug-15 00:59N 29°55' W 090°07'0 0.0
2018-Aug-15 00:29N 29°55' W 090°07'0 0.0
2018-Aug-14 23:59N 29°55' W 090°07'0 0.0
2018-Aug-14 23:29N 29°55' W 090°07'0 0.0
2018-Aug-14 22:59N 29°55' W 090°07'0 0.0
2018-Aug-14 22:29N 29°55' W 090°07'0 0.0
2018-Aug-14 21:56N 29°55' W 090°07'0 0.0
2018-Aug-14 21:29N 29°55' W 090°07'0 0.0
2018-Aug-14 20:59N 29°55' W 090°07'0 0.0
2018-Aug-14 20:29N 29°55' W 090°07'0 0.0
2018-Aug-14 19:59N 29°55' W 090°07'0 0.0
2018-Aug-14 19:29N 29°55' W 090°07'0 0.0
2018-Aug-14 18:59N 29°55' W 090°07'0 0.0
2018-Aug-14 18:26N 29°55' W 090°07'0 0.0
2018-Aug-14 17:59N 29°55' W 090°07'0 0.0
2018-Aug-14 17:26N 29°55' W 090°07'0 0.0
2018-Aug-14 16:59N 29°55' W 090°07'0 0.0
2018-Aug-14 16:29N 29°55' W 090°07'0 0.0
2018-Aug-14 15:59N 29°55' W 090°07'0 0.0
2018-Aug-14 15:29N 29°55' W 090°07'0 0.0
2018-Aug-14 14:59N 29°55' W 090°07'0 0.0
2018-Aug-14 14:29N 29°55' W 090°07'0 0.0
2018-Aug-14 13:59N 29°55' W 090°07'0 0.0
2018-Aug-14 13:29N 29°55' W 090°07'0 0.0
2018-Aug-14 12:59N 29°55' W 090°07'0 0.0
2018-Aug-14 12:26N 29°55' W 090°07'0 0.0
2018-Aug-14 11:59N 29°55' W 090°07'0 0.0
2018-Aug-14 11:29N 29°55' W 090°07'0 0.0
2018-Aug-14 10:59N 29°55' W 090°07'0 0.0
2018-Aug-14 10:30N 29°55' W 090°07'2 3.9
2018-Aug-14 10:00N 29°55' W 090°04'3 7.0
2018-Aug-14 09:30N 29°57' W 090°01'510.5
2018-Aug-14 09:00N 29°55' W 089°55'3 5.6
2018-Aug-14 08:30N 29°52' W 089°57'4 8.1
2018-Aug-14 08:00N 29°50' W 089°60'5 9.7
2018-Aug-14 07:30N 29°45' W 090°01'611.0
2018-Aug-14 07:00N 29°40' W 089°57'4 7.7
2018-Aug-14 06:25N 29°37' W 089°54'811.1
2018-Aug-14 05:43N 29°33' W 089°46'614.4
2018-Aug-14 05:19N 29°29' W 089°41'196 9.4
2018-Aug-13 08:29N 28°25' W 093°13'814.8
2018-Aug-13 07:57N 28°30' W 093°20'714.6
2018-Aug-13 07:27N 28°34' W 093°27'614.6
2018-Aug-13 07:00N 28°38' W 093°33'714.8
2018-Aug-13 06:30N 28°43' W 093°40'815.0
2018-Aug-13 06:00N 28°47' W 093°47'714.7
2018-Aug-13 05:29N 28°50' W 093°55'814.7
2018-Aug-13 04:56N 28°52' W 094°04'614.3
2018-Aug-13 04:29N 28°53' W 094°11'1014.3
2018-Aug-13 03:49N 28°55' W 094°22'611.7
2018-Aug-13 03:20N 29°00' W 094°25'1413.7
2018-Aug-13 02:18N 29°13' W 094°32'414.9
2018-Aug-13 02:00N 29°16' W 094°35'612.0
2018-Aug-13 01:30N 29°20' W 094°41'612.7
2018-Aug-13 01:00N 29°22' W 094°48'713.3
2018-Aug-13 00:30N 29°28' W 094°51'612.7
2018-Aug-13 00:00N 29°33' W 094°55'510.8
2018-Aug-12 23:30N 29°37' W 094°59'1 2.2
2018-Aug-12 22:58N 29°37' W 095°00'0 0.0
2018-Aug-12 22:28N 29°37' W 095°00'0 0.0
2018-Aug-12 21:58N 29°37' W 095°00'0 0.0
2018-Aug-12 21:28N 29°37' W 095°00'0 0.0
2018-Aug-12 20:58N 29°37' W 095°00'0 0.0
2018-Aug-12 20:28N 29°37' W 095°00'0 0.0
2018-Aug-12 19:58N 29°37' W 095°00'0 0.0
2018-Aug-12 19:28N 29°37' W 095°00'0 0.0
2018-Aug-12 18:58N 29°37' W 095°00'0 0.0
2018-Aug-12 18:28N 29°37' W 095°00'0 0.0
2018-Aug-12 17:58N 29°37' W 095°00'0 0.0
2018-Aug-12 17:28N 29°37' W 095°00'0 0.0
2018-Aug-12 16:58N 29°37' W 095°00'0 0.0
2018-Aug-12 16:28N 29°37' W 095°00'0 0.0
2018-Aug-12 15:58N 29°37' W 095°00'0 0.0
2018-Aug-12 15:28N 29°37' W 095°00'0 0.0
2018-Aug-12 14:58N 29°37' W 095°00'0 0.0
2018-Aug-12 14:28N 29°37' W 095°00'0 0.0
2018-Aug-12 13:58N 29°37' W 095°00'0 0.0
2018-Aug-12 13:28N 29°37' W 095°00'0 0.0
2018-Aug-12 12:58N 29°37' W 095°00'0 0.0
2018-Aug-12 12:28N 29°37' W 095°00'0 0.0
2018-Aug-12 11:58N 29°37' W 095°00'0 0.0
2018-Aug-12 11:28N 29°37' W 095°00'0 0.0
2018-Aug-12 10:58N 29°37' W 095°00'0 0.0
2018-Aug-12 10:28N 29°37' W 095°00'0 0.0
2018-Aug-12 09:58N 29°37' W 095°00'0 0.0
2018-Aug-12 09:28N 29°37' W 095°00'0 0.0
2018-Aug-12 08:58N 29°37' W 095°00'0 0.0
2018-Aug-12 08:28N 29°37' W 095°00'0 0.0
2018-Aug-12 07:58N 29°37' W 095°00'0 0.0
2018-Aug-12 07:28N 29°37' W 095°00'0 0.0
2018-Aug-12 06:58N 29°37' W 095°00'0 0.0
2018-Aug-12 06:28N 29°37' W 095°00'0 0.0
2018-Aug-12 05:58N 29°37' W 095°00'0 0.0
2018-Aug-12 05:28N 29°37' W 095°00'0 0.0
2018-Aug-12 04:58N 29°37' W 095°00'0 0.0
2018-Aug-12 04:28N 29°37' W 095°00'0 0.0
2018-Aug-12 03:58N 29°37' W 095°00'0 0.0
2018-Aug-12 03:28N 29°37' W 095°00'0 0.0
2018-Aug-12 02:58N 29°37' W 095°00'0 0.0
2018-Aug-12 02:28N 29°37' W 095°00'0 0.0
2018-Aug-12 01:58N 29°37' W 095°00'0 0.0
2018-Aug-12 01:28N 29°37' W 095°00'0 0.0
2018-Aug-12 00:58N 29°37' W 095°00'0 0.0
2018-Aug-12 00:28N 29°37' W 095°00'0 0.0
2018-Aug-11 23:58N 29°37' W 095°00'0 0.0
2018-Aug-11 23:28N 29°37' W 095°00'0 0.0
2018-Aug-11 22:58N 29°37' W 095°00'0 0.0
2018-Aug-11 22:28N 29°37' W 095°00'0 0.0
2018-Aug-11 21:58N 29°37' W 095°00'0 0.0
2018-Aug-11 21:28N 29°37' W 095°00'0 0.0
2018-Aug-11 20:58N 29°37' W 095°00'0 0.0
2018-Aug-11 20:28N 29°37' W 095°00'0 0.1
2018-Aug-11 20:00N 29°37' W 095°00'0 0.1
2018-Aug-11 19:30N 29°37' W 095°00'3 5.7
2018-Aug-11 19:00N 29°37' W 094°57'510.0
2018-Aug-11 18:30N 29°32' W 094°54'612.2
2018-Aug-11 18:00N 29°27' W 094°51'612.4
2018-Aug-11 17:31N 29°21' W 094°48'510.9
2018-Aug-11 17:00N 29°20' W 094°41'611.6
2018-Aug-11 16:30N 29°17' W 094°36'5 9.3
2018-Aug-11 16:00N 29°15' W 094°31'3 5.7
2018-Aug-11 15:30N 29°13' W 094°29'4 7.7
2018-Aug-11 15:00N 29°10' W 094°25'510.6
2018-Aug-11 14:29N 29°05' W 094°25'  
2018-Aug-09 05:23N 20°00' W 096°16'1516.0
2018-Aug-09 04:28N 19°47' W 096°10'916.0
2018-Aug-09 03:56N 19°39' W 096°06'716.7
2018-Aug-09 03:30N 19°32' W 096°03'816.9
2018-Aug-09 03:00N 19°24' W 095°60'816.4
2018-Aug-09 02:30N 19°17' W 095°57'714.3
2018-Aug-09 02:00N 19°12' W 096°03'4 8.2
2018-Aug-09 01:30N 19°12' W 096°07'1 2.1
2018-Aug-09 01:00N 19°13' W 096°08'0 0.0
2018-Aug-09 00:27N 19°13' W 096°08'0 0.0
2018-Aug-09 00:00N 19°13' W 096°08'0 0.0
2018-Aug-08 23:30N 19°13' W 096°08'0 0.0
2018-Aug-08 23:00N 19°13' W 096°08'0 0.0
2018-Aug-08 22:30N 19°13' W 096°08'0 0.0
2018-Aug-08 22:00N 19°13' W 096°08'0 0.0
2018-Aug-08 21:30N 19°13' W 096°08'0 0.0
2018-Aug-08 21:00N 19°13' W 096°08'0 0.0
2018-Aug-08 20:30N 19°13' W 096°08'0 0.0
2018-Aug-08 19:57N 19°13' W 096°08'0 0.0
2018-Aug-08 19:27N 19°13' W 096°08'0 0.0
2018-Aug-08 18:57N 19°13' W 096°08'0 0.0
2018-Aug-08 18:30N 19°13' W 096°08'0 0.0
2018-Aug-08 18:00N 19°13' W 096°08'0 0.0
2018-Aug-08 17:30N 19°13' W 096°08'0 0.0
2018-Aug-08 17:00N 19°13' W 096°08'0 0.0
2018-Aug-08 16:30N 19°13' W 096°08'0 0.0
2018-Aug-08 16:00N 19°13' W 096°08'0 0.0
2018-Aug-08 15:30N 19°13' W 096°08'0 0.0
2018-Aug-08 14:57N 19°13' W 096°08'0 0.0
2018-Aug-08 14:30N 19°13' W 096°08'0 0.0
2018-Aug-08 14:00N 19°13' W 096°08'0 0.0
2018-Aug-08 13:30N 19°13' W 096°08'0 0.0
2018-Aug-08 13:00N 19°13' W 096°08'0 0.0
2018-Aug-08 12:24N 19°13' W 096°08'0 0.0
2018-Aug-08 11:48N 19°13' W 096°08'0 0.0
2018-Aug-08 11:30N 19°13' W 096°08'0 0.0
2018-Aug-08 11:00N 19°13' W 096°08'0 0.0
2018-Aug-08 10:30N 19°13' W 096°08'0 0.0
2018-Aug-08 10:00N 19°13' W 096°08'0 0.0
2018-Aug-08 09:30N 19°13' W 096°08'0 0.0
2018-Aug-08 09:00N 19°13' W 096°08'0 0.0
2018-Aug-08 08:24N 19°13' W 096°08'0 0.0
2018-Aug-08 08:00N 19°13' W 096°08'0 0.0
2018-Aug-08 07:24N 19°13' W 096°08'0 0.0
2018-Aug-08 07:00N 19°13' W 096°08'0 0.0
2018-Aug-08 06:30N 19°13' W 096°08'0 0.0
2018-Aug-08 05:54N 19°13' W 096°08'0 0.0
2018-Aug-08 05:30N 19°13' W 096°08'1 1.4
2018-Aug-08 05:00N 19°12' W 096°08'  

Dump ship's entire track history